createdAt,value
2022-10-16T00:01:38.048Z,1008.49
2022-10-16T00:16:38.599Z,1008.57
2022-10-16T00:31:39.695Z,1008.76
2022-10-16T00:46:42.032Z,1008.76
2022-10-16T01:01:42.606Z,1008.97
2022-10-16T01:16:42.724Z,1008.98
2022-10-16T01:31:42.825Z,1009.03
2022-10-16T01:46:42.933Z,1009.16
2022-10-16T02:01:43.034Z,1009.27
2022-10-16T02:16:43.679Z,1009.40
2022-10-16T02:31:44.726Z,1009.65
2022-10-16T02:46:44.341Z,1009.74
2022-10-16T03:01:44.428Z,1009.72
2022-10-16T03:16:45.058Z,1009.92
2022-10-16T03:31:45.649Z,1009.86
2022-10-16T03:46:45.781Z,1010.14
2022-10-16T04:01:46.322Z,1010.33
2022-10-16T04:16:45.943Z,1010.35
2022-10-16T04:31:46.547Z,1010.28
2022-10-16T04:46:46.146Z,1010.27
2022-10-16T05:01:46.242Z,1010.25
2022-10-16T05:16:48.091Z,1010.47
2022-10-16T05:31:48.461Z,1010.63
2022-10-16T05:46:49.052Z,1010.76
2022-10-16T06:01:48.697Z,1010.97
2022-10-16T06:16:49.301Z,1010.90
2022-10-16T06:31:49.375Z,1011.21
2022-10-16T06:46:50.479Z,1011.52
2022-10-16T07:01:50.630Z,1011.57
2022-10-16T07:16:51.708Z,1011.76
2022-10-16T07:31:51.868Z,1011.87
2022-10-16T07:46:52.409Z,1011.80
2022-10-16T08:01:52.654Z,1012.23
2022-10-16T08:16:52.613Z,1012.15
2022-10-16T08:31:52.720Z,1012.32
2022-10-16T08:46:54.390Z,1012.42
2022-10-16T09:01:54.906Z,1012.50
2022-10-16T09:16:55.055Z,1012.62
2022-10-16T09:31:56.132Z,1012.74
2022-10-16T09:46:56.699Z,1012.91
2022-10-16T10:01:56.816Z,1013.03
2022-10-16T10:16:57.395Z,1013.13
2022-10-16T10:31:57.014Z,1013.19
2022-10-16T10:46:57.194Z,1013.26
2022-10-16T11:01:57.888Z,1013.28
2022-10-16T11:16:58.406Z,1013.35
2022-10-16T11:31:58.545Z,1013.38
2022-10-16T11:47:00.576Z,1013.31
2022-10-16T12:02:04.270Z,1013.54
2022-10-16T12:17:04.353Z,1013.56
2022-10-16T12:32:04.919Z,1013.65
2022-10-16T12:47:05.060Z,1013.79
2022-10-16T13:02:04.710Z,1013.93
2022-10-16T13:17:05.283Z,1014.04
2022-10-16T13:32:05.477Z,1014.28
2022-10-16T13:47:06.075Z,1014.25
2022-10-16T14:02:06.259Z,1014.28
2022-10-16T14:17:06.787Z,1014.36
2022-10-16T14:32:07.387Z,1014.61
2022-10-16T14:47:07.461Z,1014.76
2022-10-16T15:02:08.061Z,1014.86
2022-10-16T15:17:08.175Z,1014.86
2022-10-16T15:32:09.897Z,1015.14
2022-10-16T15:47:09.913Z,1015.46
2022-10-16T16:02:10.648Z,1015.64
2022-10-16T16:17:11.113Z,1015.80
2022-10-16T16:32:11.199Z,1015.93
2022-10-16T16:47:11.314Z,1016.31
2022-10-16T17:02:12.019Z,1016.54
2022-10-16T17:17:12.507Z,1016.69
2022-10-16T17:32:12.667Z,1016.80
2022-10-16T17:47:12.790Z,1017.06
2022-10-16T18:02:12.937Z,1017.28
2022-10-16T18:17:12.945Z,1017.31
2022-10-16T18:32:13.619Z,1017.46
2022-10-16T18:47:14.991Z,1017.74
2022-10-16T19:02:17.011Z,1017.52
2022-10-16T19:17:18.001Z,1017.92
2022-10-16T19:32:18.633Z,1017.95
2022-10-16T19:47:22.278Z,1018.31
2022-10-16T20:02:23.954Z,1018.35
2022-10-16T20:17:24.743Z,1018.55
2022-10-16T20:32:26.073Z,1018.74
2022-10-16T20:47:26.140Z,1018.74
2022-10-16T21:02:26.818Z,1018.69
2022-10-16T21:17:26.912Z,1018.92
2022-10-16T21:32:27.355Z,1019.05
2022-10-16T21:47:28.620Z,1019.34
2022-10-16T22:02:29.500Z,1019.54
2022-10-16T22:17:30.021Z,1019.32
2022-10-16T22:32:30.749Z,1019.25
2022-10-16T22:47:31.351Z,1019.39
2022-10-16T23:02:31.536Z,1019.52
2022-10-16T23:17:32.077Z,1019.35
2022-10-16T23:32:32.661Z,1019.79
2022-10-16T23:47:33.523Z,1019.67
